Time;durP1;ratioP1;P1;durP2;ratioP2;P2;SDS_P1;SDS_P2;PMS_P1;PMS_P2;Temp;Humidity;BMP_temperature;BMP_pressure;BME280_temperature;BME280_humidity;BME280_pressure;Samples;Min_cycle;Max_cycle;Signal;HPM_P1;HPM_P2
2021/12/09 00:01:31;;;;;;;61.67;27.42;;;-2.30;99.90;;;;;;5015304;28;20428;-54
2021/12/09 00:04:00;;;;;;;58.75;26.65;;;-2.30;99.90;;;;;;5031616;28;20030;-54
2021/12/09 00:06:29;;;;;;;60.72;28.45;;;-2.30;99.90;;;;;;5031329;28;20135;-54
2021/12/09 00:09:00;;;;;;;56.95;26.25;;;-2.30;99.90;;;;;;5030872;28;20033;-56
2021/12/09 00:11:27;;;;;;;57.92;25.65;;;-2.30;99.90;;;;;;5013820;28;20025;-55
2021/12/09 00:13:53;;;;;;;59.47;26.98;;;-2.30;99.90;;;;;;5031412;28;20044;-54
2021/12/09 00:16:19;;;;;;;50.67;24.00;;;-2.30;99.90;;;;;;5032006;28;20485;-54
2021/12/09 00:18:45;;;;;;;55.70;25.23;;;-2.30;99.90;;;;;;5031581;28;20123;-53
2021/12/09 00:21:11;;;;;;;59.83;26.08;;;-2.30;99.90;;;;;;5031460;28;20084;-54
2021/12/09 00:23:36;;;;;;;57.30;27.25;;;-2.30;99.90;;;;;;5013377;28;20025;-54
2021/12/09 00:26:03;;;;;;;60.50;26.02;;;-2.30;99.90;;;;;;5031328;28;20365;-55
2021/12/09 00:28:28;;;;;;;56.40;26.75;;;-2.30;99.90;;;;;;5031352;28;20037;-54
2021/12/09 00:30:54;;;;;;;59.28;27.67;;;-2.30;99.90;;;;;;5030775;28;20060;-55
2021/12/09 00:33:20;;;;;;;58.08;25.50;;;-2.30;99.90;;;;;;5031173;28;20365;-55
2021/12/09 00:35:55;;;;;;;56.65;25.33;;;-2.20;99.90;;;;;;5031039;28;20143;-54
2021/12/09 00:38:33;;;;;;;57.03;25.73;;;-2.20;99.90;;;;;;5031148;28;20689;-55
2021/12/09 00:41:02;;;;;;;51.95;23.65;;;-2.20;99.90;;;;;;5014797;28;20473;-55
2021/12/09 00:43:28;;;;;;;57.40;24.70;;;-2.20;99.90;;;;;;5030863;28;20461;-55
2021/12/09 00:45:54;;;;;;;54.92;24.10;;;-2.30;99.90;;;;;;5014670;28;20112;-55
2021/12/09 00:48:20;;;;;;;51.10;24.33;;;-2.20;99.90;;;;;;5009084;28;20032;-55
2021/12/09 00:50:46;;;;;;;56.38;24.90;;;-2.20;99.90;;;;;;5008508;28;20026;-55
2021/12/09 00:53:12;;;;;;;55.33;25.77;;;-2.20;99.90;;;;;;5009186;28;21361;-55
2021/12/09 00:55:37;;;;;;;52.05;23.25;;;-2.20;99.90;;;;;;5006304;28;20040;-55
2021/12/09 00:58:04;;;;;;;54.55;25.45;;;-2.20;99.90;;;;;;5008699;28;20473;-56
2021/12/09 01:00:31;;;;;;;58.75;25.17;;;-2.20;99.90;;;;;;5009676;28;20355;-55
2021/12/09 01:02:58;;;;;;;57.13;26.08;;;-2.20;99.90;;;;;;5018083;28;20449;-55
2021/12/09 01:05:25;;;;;;;58.63;28.38;;;-2.20;99.90;;;;;;5009137;28;20022;-55
2021/12/09 01:07:51;;;;;;;56.58;25.90;;;-2.20;99.90;;;;;;4991573;28;20022;-55
2021/12/09 01:10:17;;;;;;;61.13;28.45;;;-2.10;99.90;;;;;;4991296;28;20385;-54
2021/12/09 01:12:44;;;;;;;62.08;25.40;;;-2.10;99.90;;;;;;5009049;28;20065;-54
2021/12/09 01:15:12;;;;;;;56.53;25.63;;;-2.10;99.90;;;;;;5008595;28;20038;-54
2021/12/09 01:17:38;;;;;;;58.78;27.05;;;-2.10;99.90;;;;;;5009315;28;20026;-54
2021/12/09 01:20:07;;;;;;;58.15;26.38;;;-2.10;99.90;;;;;;5007898;28;20029;-55
2021/12/09 01:22:42;;;;;;;55.92;26.42;;;-2.00;99.90;;;;;;5008800;28;20010;-53
2021/12/09 01:25:12;;;;;;;56.72;25.00;;;-2.00;99.90;;;;;;5008801;28;20028;-54
2021/12/09 01:27:41;;;;;;;53.05;25.63;;;-2.00;99.90;;;;;;5006757;28;20525;-53
2021/12/09 01:30:13;;;;;;;53.28;26.45;;;-2.00;99.90;;;;;;4991682;28;20037;-55
2021/12/09 01:32:43;;;;;;;57.83;26.02;;;-2.00;99.90;;;;;;5010786;28;20102;-56
2021/12/09 01:35:09;;;;;;;59.17;27.83;;;-2.00;99.90;;;;;;5010402;28;20397;-55
2021/12/09 01:37:35;;;;;;;55.15;24.60;;;-1.90;99.90;;;;;;4993639;28;20022;-55
2021/12/09 01:40:03;;;;;;;52.38;25.33;;;-2.00;99.90;;;;;;5010328;28;20025;-56
2021/12/09 01:42:29;;;;;;;57.08;25.30;;;-1.90;99.90;;;;;;5011027;28;20041;-55
2021/12/09 01:44:55;;;;;;;55.60;25.27;;;-2.00;99.90;;;;;;5011002;28;20029;-55
2021/12/09 01:47:21;;;;;;;57.08;26.58;;;-1.90;99.90;;;;;;5010531;28;20053;-56
2021/12/09 01:49:46;;;;;;;57.05;24.42;;;-1.90;99.90;;;;;;4995117;28;20029;-55
2021/12/09 01:52:12;;;;;;;55.42;26.45;;;-2.00;99.90;;;;;;5009763;28;20051;-55
2021/12/09 01:54:38;;;;;;;53.10;25.38;;;-1.90;99.90;;;;;;5010599;28;20119;-56
2021/12/09 01:57:06;;;;;;;59.75;25.30;;;-1.90;99.90;;;;;;5010973;28;20500;-55
2021/12/09 01:59:32;;;;;;;52.47;24.45;;;-1.90;99.90;;;;;;5010680;28;20052;-55
2021/12/09 02:01:58;;;;;;;60.30;27.75;;;-1.90;99.90;;;;;;5015864;28;20385;-55
2021/12/09 02:04:23;;;;;;;58.50;26.92;;;-1.90;99.90;;;;;;5030256;28;20111;-55
2021/12/09 02:06:49;;;;;;;52.65;24.50;;;-1.90;99.90;;;;;;5030040;28;20079;-55
2021/12/09 02:09:16;;;;;;;62.92;26.67;;;-1.90;99.90;;;;;;5015556;28;20034;-57
2021/12/09 02:11:42;;;;;;;52.13;25.42;;;-1.90;99.90;;;;;;5010739;28;20098;-55
2021/12/09 02:14:09;;;;;;;57.22;24.88;;;-1.90;99.90;;;;;;5010305;28;20163;-54
2021/12/09 02:16:36;;;;;;;52.33;24.15;;;-1.90;99.90;;;;;;5010030;28;20038;-55
2021/12/09 02:19:02;;;;;;;53.85;25.60;;;-1.90;99.90;;;;;;5010034;28;20128;-55
2021/12/09 02:21:33;;;;;;;51.72;25.40;;;-1.80;99.90;;;;;;5010495;28;20026;-54
2021/12/09 02:24:06;;;;;;;55.35;26.13;;;-1.80;99.90;;;;;;5010028;28;20441;-54
2021/12/09 02:26:36;;;;;;;50.22;24.27;;;-1.80;99.90;;;;;;4992262;28;20064;-55
2021/12/09 02:29:04;;;;;;;58.13;26.55;;;-1.80;99.90;;;;;;5009953;28;20018;-55
2021/12/09 02:31:30;;;;;;;52.75;25.35;;;-1.80;99.90;;;;;;5009673;28;20034;-55
2021/12/09 02:33:57;;;;;;;53.38;26.25;;;-1.80;99.90;;;;;;5009833;28;20084;-55
2021/12/09 02:36:23;;;;;;;;;;;-1.80;99.90;;;;;;5010580;28;20022;-55
2021/12/09 02:38:50;;;;;;;55.60;24.85;;;-1.80;99.90;;;;;;5010006;28;19913;-55
2021/12/09 02:41:23;;;;;;;52.85;26.13;;;-1.70;99.90;;;;;;5010136;28;20362;-55
2021/12/09 02:43:53;;;;;;;57.72;27.02;;;-1.80;99.90;;;;;;5010006;28;20125;-54
2021/12/09 02:46:19;;;;;;;53.33;26.75;;;-1.70;99.90;;;;;;5010714;28;20084;-55
2021/12/09 02:48:45;;;;;;;57.35;25.85;;;-1.80;99.90;;;;;;5009774;28;20425;-55
2021/12/09 02:51:12;;;;;;;58.08;27.23;;;-1.70;99.90;;;;;;5009835;28;20094;-55
2021/12/09 02:53:38;;;;;;;59.15;28.48;;;-1.70;99.90;;;;;;5009704;28;20065;-55
2021/12/09 02:56:04;;;;;;;62.28;28.15;;;-1.70;99.90;;;;;;4992126;28;20042;-54
2021/12/09 02:58:30;;;;;;;58.23;26.40;;;-1.60;99.90;;;;;;5009748;28;20089;-55
2021/12/09 03:01:02;;;;;;;58.67;28.02;;;-1.70;99.90;;;;;;5009796;28;20578;-55
2021/12/09 03:03:28;;;;;;;55.30;28.23;;;-1.70;99.90;;;;;;5025465;28;20056;-55
2021/12/09 03:05:56;;;;;;;54.17;25.88;;;-1.70;99.90;;;;;;5028986;28;20045;-55
2021/12/09 03:08:33;;;;;;;54.38;28.33;;;-1.60;99.90;;;;;;5029325;28;20092;-55
2021/12/09 03:11:12;;;;;;;60.78;28.13;;;-1.60;99.90;;;;;;5029150;28;20473;-55
2021/12/09 03:13:41;;;;;;;59.90;29.00;;;-1.60;99.90;;;;;;5029552;28;20082;-55
2021/12/09 03:16:08;;;;;;;58.00;27.55;;;-1.60;99.90;;;;;;5029037;28;20045;-56
2021/12/09 03:18:41;;;;;;;60.20;28.13;;;-1.60;99.90;;;;;;5029672;28;20073;-55
2021/12/09 03:21:15;;;;;;;54.80;26.60;;;-1.60;99.90;;;;;;5029223;28;20034;-55
2021/12/09 03:23:41;;;;;;;60.00;27.10;;;-1.60;99.90;;;;;;5028871;28;20041;-55
2021/12/09 03:26:07;;;;;;;62.97;28.63;;;-1.50;99.90;;;;;;5029056;28;20543;-56
2021/12/09 03:28:33;;;;;;;63.17;29.30;;;-1.60;99.90;;;;;;5029315;28;20025;-54
2021/12/09 03:30:59;;;;;;;52.00;26.13;;;-1.50;99.90;;;;;;5029388;28;20516;-53
2021/12/09 03:33:25;;;;;;;61.35;28.83;;;-1.50;99.90;;;;;;5029009;28;20021;-55
2021/12/09 03:36:03;;;;;;;62.88;28.85;;;-1.50;99.90;;;;;;5029381;28;20488;-56
2021/12/09 03:38:32;;;;;;;63.35;27.17;;;-1.60;99.90;;;;;;5028909;28;20029;-55
2021/12/09 03:40:58;;;;;;;60.42;28.65;;;-1.50;99.90;;;;;;5028981;28;20026;-57
2021/12/09 03:43:24;;;;;;;61.43;29.23;;;-1.50;99.90;;;;;;5029355;28;20034;-55
2021/12/09 03:45:55;;;;;;;59.50;26.92;;;-1.50;99.90;;;;;;5017714;28;20060;-55
2021/12/09 03:48:22;;;;;;;59.42;28.52;;;-1.40;99.90;;;;;;5012977;28;20029;-55
2021/12/09 03:50:48;;;;;;;55.58;26.25;;;-1.50;99.90;;;;;;5012709;28;20048;-56
2021/12/09 03:53:14;;;;;;;59.38;29.02;;;-1.40;99.90;;;;;;5012692;28;20481;-55
2021/12/09 03:55:40;;;;;;;58.85;27.52;;;-1.40;99.90;;;;;;5013118;28;20049;-55
2021/12/09 03:58:07;;;;;;;60.85;29.10;;;-1.40;99.90;;;;;;5012721;28;20110;-55
2021/12/09 04:00:33;;;;;;;61.45;28.67;;;-1.50;99.90;;;;;;5012605;28;20045;-55
2021/12/09 04:02:59;;;;;;;61.97;29.02;;;-1.40;99.90;;;;;;5024651;28;20022;-55
2021/12/09 04:05:24;;;;;;;62.13;31.02;;;-1.40;99.90;;;;;;5032483;28;20132;-55
2021/12/09 04:07:51;;;;;;;66.72;30.50;;;-1.50;99.90;;;;;;5032452;28;20091;-55
2021/12/09 04:10:17;;;;;;;57.65;28.23;;;-1.50;99.90;;;;;;5032181;28;20108;-55
2021/12/09 04:12:42;;;;;;;55.80;27.23;;;-1.40;99.90;;;;;;5032460;28;20113;-55
2021/12/09 04:15:09;;;;;;;57.40;28.13;;;-1.40;99.90;;;;;;5032167;28;20133;-55
2021/12/09 04:17:35;;;;;;;64.35;30.05;;;-1.40;99.90;;;;;;5032411;28;20026;-55
2021/12/09 04:20:03;;;;;;;59.28;29.15;;;-1.40;99.90;;;;;;5032405;28;20388;-55
2021/12/09 04:22:29;;;;;;;70.07;31.33;;;-1.30;99.90;;;;;;5014307;28;20025;-54
2021/12/09 04:24:54;;;;;;;60.10;29.27;;;-1.40;99.90;;;;;;5032343;28;20060;-55
2021/12/09 04:27:21;;;;;;;69.00;29.83;;;-1.40;99.90;;;;;;5031989;28;20515;-55
2021/12/09 04:29:47;;;;;;;59.67;29.97;;;-1.30;99.90;;;;;;5014270;28;20029;-55
2021/12/09 04:32:12;;;;;;;62.53;29.15;;;-1.30;99.90;;;;;;5032026;28;20041;-56
2021/12/09 04:34:39;;;;;;;67.10;30.58;;;-1.30;99.90;;;;;;5031924;28;20037;-53
2021/12/09 04:37:05;;;;;;;63.30;29.90;;;-1.30;99.90;;;;;;5032085;28;20052;-55
2021/12/09 04:39:30;;;;;;;65.05;30.63;;;-1.40;99.90;;;;;;5031701;28;20493;-54
2021/12/09 04:41:56;;;;;;;70.22;32.10;;;-1.30;99.90;;;;;;5031714;28;20036;-54
2021/12/09 04:44:22;;;;;;;59.95;30.17;;;-1.30;99.90;;;;;;5028847;28;20620;-54
2021/12/09 04:46:49;;;;;;;55.83;28.83;;;-1.30;99.90;;;;;;5011733;28;20060;-54
2021/12/09 04:49:15;;;;;;;61.70;28.83;;;-1.30;99.90;;;;;;5011687;28;20029;-54
2021/12/09 04:51:41;;;;;;;57.93;27.53;;;-1.30;99.90;;;;;;5012024;28;20520;-54
2021/12/09 04:54:07;;;;;;;59.08;27.13;;;-1.30;99.90;;;;;;5011423;28;20289;-54
2021/12/09 04:56:34;;;;;;;64.83;28.80;;;-1.30;99.90;;;;;;5011572;28;20025;-55
2021/12/09 04:59:00;;;;;;;67.22;29.77;;;-1.30;99.90;;;;;;5011673;28;20029;-55
2021/12/09 05:01:26;;;;;;;64.95;29.42;;;-1.30;99.90;;;;;;5011832;28;20030;-54
2021/12/09 05:03:51;;;;;;;62.97;28.58;;;-1.30;99.90;;;;;;5030360;28;20030;-55
2021/12/09 05:06:18;;;;;;;60.25;27.98;;;-1.30;99.90;;;;;;5031344;28;20087;-55
2021/12/09 05:08:47;;;;;;;;;;;-1.30;99.90;;;;;;5031360;28;20369;-54
2021/12/09 05:12:00;;;;;;;60.65;27.48;;;-1.30;99.90;;;;;;5031434;28;19904;-54
2021/12/09 05:14:01;;;;;;;53.17;26.17;;;-1.30;99.90;;;;;;5016799;28;20041;-53
2021/12/09 05:16:27;;;;;;;58.08;27.88;;;-1.20;99.90;;;;;;5030929;28;20036;-54
2021/12/09 05:18:58;;;;;;;59.47;28.77;;;-1.20;99.90;;;;;;5030801;28;20473;-54
2021/12/09 05:21:39;;;;;;;61.15;28.52;;;-1.20;99.90;;;;;;5031163;28;20037;-54
2021/12/09 05:24:10;;;;;;;63.45;28.25;;;-1.30;99.90;;;;;;5030965;28;20030;-53
2021/12/09 05:26:44;;;;;;;66.30;30.67;;;-1.20;99.90;;;;;;5030431;28;20042;-54
2021/12/09 05:29:10;;;;;;;61.63;29.63;;;-1.20;99.90;;;;;;5030619;28;20029;-54
2021/12/09 05:34:20;;;;;;;62.20;28.05;;;-1.20;99.90;;;;;;5030581;28;20072;-55
2021/12/09 05:36:46;;;;;;;67.63;29.67;;;-1.20;99.90;;;;;;5012605;28;20419;-55
2021/12/09 05:39:16;;;;;;;66.47;29.80;;;-1.10;99.90;;;;;;5030292;28;20036;-55
2021/12/09 05:41:42;;;;;;;65.65;30.60;;;-1.10;99.90;;;;;;5030635;28;20030;-55
2021/12/09 05:44:09;;;;;;;66.95;30.98;;;-1.10;99.90;;;;;;5029268;28;20021;-55
2021/12/09 05:46:37;;;;;;;69.65;31.58;;;-1.10;99.90;;;;;;5010482;28;20037;-55
2021/12/09 05:49:05;;;;;;;65.68;31.27;;;-1.10;99.90;;;;;;5010330;28;20425;-55
2021/12/09 05:51:31;;;;;;;72.68;32.05;;;-1.10;99.90;;;;;;5010643;28;20041;-55
2021/12/09 05:53:56;;;;;;;73.63;33.13;;;-1.10;99.90;;;;;;5010331;28;20022;-54
2021/12/09 05:56:22;;;;;;;67.13;30.50;;;-1.10;99.90;;;;;;5010378;28;20037;-55
2021/12/09 05:58:48;;;;;;;73.63;32.92;;;-1.00;99.90;;;;;;5010731;28;20589;-56
2021/12/09 06:01:15;;;;;;;75.43;33.33;;;-1.00;99.90;;;;;;4993175;28;20061;-55
2021/12/09 06:03:41;;;;;;;74.10;32.40;;;-1.00;99.90;;;;;;5010872;28;20029;-55
2021/12/09 06:06:07;;;;;;;68.15;31.10;;;-1.00;99.90;;;;;;5030449;28;20026;-55
2021/12/09 06:08:36;;;;;;;67.28;32.78;;;-1.00;99.90;;;;;;5030631;28;20186;-55
2021/12/09 06:11:03;;;;;;;73.53;34.00;;;-1.00;99.90;;;;;;5030651;28;20476;-56
2021/12/09 06:13:31;;;;;;;74.68;33.58;;;-0.90;99.90;;;;;;5030704;28;20029;-56
2021/12/09 06:15:57;;;;;;;69.03;33.00;;;-0.90;99.90;;;;;;5030466;28;20143;-55
2021/12/09 06:18:23;;;;;;;71.43;31.73;;;-0.90;99.90;;;;;;5030627;28;20022;-55
2021/12/09 06:20:49;;;;;;;66.53;31.63;;;-0.90;99.90;;;;;;5030369;28;20282;-55
2021/12/09 06:23:14;;;;;;;68.68;31.33;;;-0.90;99.90;;;;;;5030500;28;20100;-55
2021/12/09 06:25:40;;;;;;;71.05;32.90;;;-0.90;99.90;;;;;;5030702;28;20072;-55
2021/12/09 06:28:06;;;;;;;67.22;31.92;;;-0.90;99.90;;;;;;5030397;28;20511;-55
2021/12/09 06:30:32;;;;;;;69.93;31.88;;;-0.90;99.90;;;;;;5030344;28;20029;-55
2021/12/09 06:32:58;;;;;;;67.22;31.02;;;-0.90;99.90;;;;;;5012825;28;20056;-55
2021/12/09 06:35:27;;;;;;;67.20;30.45;;;-1.00;99.90;;;;;;5012400;28;20041;-55
2021/12/09 06:37:53;;;;;;;71.13;32.60;;;-1.00;99.90;;;;;;5030374;28;20465;-55
2021/12/09 06:40:21;;;;;;;68.75;32.72;;;-0.90;99.90;;;;;;5030223;28;20033;-55
2021/12/09 06:42:49;;;;;;;66.38;31.15;;;-0.90;99.90;;;;;;5030594;28;20149;-55
2021/12/09 06:45:16;;;;;;;70.40;32.33;;;-0.90;99.90;;;;;;5002082;28;20078;-55
2021/12/09 06:47:43;;;;;;;70.75;33.25;;;-0.90;99.90;;;;;;5010492;28;20065;-55
2021/12/09 06:50:11;;;;;;;65.30;30.63;;;-1.00;99.90;;;;;;5010478;28;20030;-55
2021/12/09 06:52:37;;;;;;;68.10;30.73;;;-1.00;99.90;;;;;;5010530;28;20030;-55
2021/12/09 06:55:08;;;;;;;72.97;32.45;;;-1.00;99.90;;;;;;5010179;28;20413;-55
2021/12/09 06:57:35;;;;;;;66.22;30.10;;;-1.00;99.90;;;;;;5010303;28;20033;-56
2021/12/09 07:00:01;;;;;;;68.38;31.08;;;-1.00;99.90;;;;;;5010361;28;20034;-56
2021/12/09 07:02:27;;;;;;;75.03;34.15;;;-1.00;99.90;;;;;;5018180;28;20097;-55
2021/12/09 07:04:53;;;;;;;71.93;30.93;;;-0.90;99.90;;;;;;5030075;28;20025;-55
2021/12/09 07:07:18;;;;;;;64.72;30.45;;;-0.90;99.90;;;;;;5030447;28;20048;-55
2021/12/09 07:09:44;;;;;;;64.18;30.98;;;-1.00;99.90;;;;;;5029849;28;20033;-55
2021/12/09 07:12:10;;;;;;;70.50;31.23;;;-1.00;99.90;;;;;;5030033;28;20030;-55
2021/12/09 07:14:36;;;;;;;70.03;32.65;;;-1.00;99.90;;;;;;5029694;28;20037;-55
2021/12/09 07:17:02;;;;;;;65.22;30.23;;;-1.00;99.90;;;;;;5029929;28;20033;-55
2021/12/09 07:19:28;;;;;;;69.03;32.17;;;-1.00;99.90;;;;;;5031961;28;20040;-55
2021/12/09 07:21:54;;;;;;;79.28;36.97;;;-0.90;99.90;;;;;;5034126;28;20029;-55
2021/12/09 07:24:19;;;;;;;70.88;31.95;;;-0.90;99.90;;;;;;5033857;28;20040;-56
2021/12/09 07:26:45;;;;;;;71.95;32.08;;;-0.90;99.90;;;;;;5033311;28;20053;-56
2021/12/09 07:29:11;;;;;;;77.20;33.30;;;-0.80;99.90;;;;;;5033750;28;20142;-56
2021/12/09 07:31:37;;;;;;;69.03;33.78;;;-0.90;99.90;;;;;;5033720;28;20474;-55
2021/12/09 07:34:03;;;;;;;74.00;34.78;;;-0.90;99.90;;;;;;5033567;28;20029;-55
2021/12/09 07:36:29;;;;;;;72.78;34.45;;;-0.80;99.90;;;;;;5033555;28;20493;-56
2021/12/09 07:38:54;;;;;;;75.88;35.10;;;-0.80;99.90;;;;;;5033232;28;20116;-60
2021/12/09 07:41:21;;;;;;;69.00;32.53;;;-0.80;99.90;;;;;;5033487;28;20072;-56
2021/12/09 07:43:49;;;;;;;73.53;33.55;;;-0.80;99.90;;;;;;5033134;28;20386;-54
2021/12/09 07:46:16;;;;;;;69.75;33.45;;;-0.70;99.90;;;;;;5014513;28;20057;-54
2021/12/09 07:48:42;;;;;;;66.18;30.50;;;-0.70;99.90;;;;;;5013464;28;20037;-54
2021/12/09 07:51:07;;;;;;;79.55;35.85;;;-0.70;99.90;;;;;;5013353;28;20030;-54
2021/12/09 07:53:33;;;;;;;80.13;35.05;;;-0.70;99.90;;;;;;5013436;28;20029;-54
2021/12/09 07:55:59;;;;;;;70.63;35.30;;;-0.70;99.90;;;;;;5012951;28;20030;-54
2021/12/09 07:58:25;;;;;;;78.53;35.80;;;-0.70;99.90;;;;;;5013244;28;20030;-55
2021/12/09 08:00:50;;;;;;;75.93;36.03;;;-0.80;99.90;;;;;;5013289;28;20022;-54
2021/12/09 08:03:16;;;;;;;67.68;33.50;;;-0.80;99.90;;;;;;5027923;28;20025;-55
2021/12/09 08:05:45;;;;;;;76.15;34.92;;;-0.80;99.90;;;;;;5033238;28;20587;-55
2021/12/09 08:08:12;;;;;;;78.53;33.63;;;-0.80;99.90;;;;;;5032943;28;20022;-55
2021/12/09 08:10:38;;;;;;;69.13;32.63;;;-0.90;99.90;;;;;;5033117;28;20103;-54
2021/12/09 08:13:04;;;;;;;67.15;33.35;;;-0.80;99.90;;;;;;5032892;28;20021;-54
2021/12/09 08:15:34;;;;;;;77.80;34.63;;;-0.80;99.90;;;;;;5032680;28;20042;-55
2021/12/09 08:20:47;;;;;;;75.72;33.75;;;-0.60;99.90;;;;;;5032788;28;20037;-55
2021/12/09 08:23:13;;;;;;;81.90;35.53;;;-0.60;99.90;;;;;;5032877;28;20108;-55
2021/12/09 08:25:40;;;;;;;79.50;37.63;;;-0.50;99.90;;;;;;5032928;28;20112;-55
2021/12/09 08:28:06;;;;;;;88.82;38.38;;;-0.50;99.90;;;;;;5032160;28;20055;-55
2021/12/09 08:30:32;;;;;;;96.05;39.97;;;-0.50;99.90;;;;;;5032011;28;20025;-55
2021/12/09 08:32:58;;;;;;;87.78;38.90;;;-0.40;99.90;;;;;;5032382;28;20053;-55
2021/12/09 08:35:24;;;;;;;81.68;36.58;;;-0.40;99.90;;;;;;5032723;28;20045;-55
2021/12/09 08:37:51;;;;;;;87.93;39.03;;;-0.40;99.90;;;;;;5032387;28;20037;-56
2021/12/09 08:40:17;;;;;;;87.57;39.33;;;-0.30;99.90;;;;;;5032017;28;20058;-55
2021/12/09 08:42:44;;;;;;;93.82;39.67;;;-0.40;99.90;;;;;;5032236;28;20053;-55
2021/12/09 08:45:11;;;;;;;82.90;36.10;;;-0.30;99.90;;;;;;5022436;28;20041;-55
2021/12/09 08:47:38;;;;;;;84.10;38.78;;;-0.40;99.90;;;;;;5012242;28;20114;-54
2021/12/09 08:50:07;;;;;;;83.82;38.67;;;-0.30;99.90;;;;;;5011850;28;20026;-54
2021/12/09 08:52:34;;;;;;;85.15;37.38;;;-0.30;99.90;;;;;;5012361;28;20034;-56
2021/12/09 08:54:59;;;;;;;77.33;37.23;;;-0.30;99.90;;;;;;5012200;28;20088;-57
2021/12/09 08:57:26;;;;;;;78.40;36.67;;;-0.30;99.90;;;;;;5011122;28;20221;-56
2021/12/09 08:59:52;;;;;;;89.80;38.40;;;-0.20;99.90;;;;;;5011329;28;20133;-56
2021/12/09 09:02:18;;;;;;;97.70;42.70;;;-0.20;99.90;;;;;;5014908;28;20529;-55
2021/12/09 09:04:45;;;;;;;88.95;40.13;;;-0.10;99.90;;;;;;5031735;28;20048;-56
2021/12/09 09:07:11;;;;;;;87.05;41.30;;;-0.10;99.90;;;;;;5031850;28;20116;-54
2021/12/09 09:09:38;;;;;;;96.88;41.90;;;-0.10;99.90;;;;;;5031694;28;20129;-54
2021/12/09 09:12:07;;;;;;;98.68;44.30;;;-0.10;99.90;;;;;;5031671;28;20401;-54
2021/12/09 09:14:34;;;;;;;107.40;43.92;;;0.00;99.90;;;;;;5031240;28;20112;-54
2021/12/09 09:17:00;;;;;;;107.57;45.80;;;0.00;99.90;;;;;;5026110;28;20087;-54
2021/12/09 09:19:26;;;;;;;94.03;41.17;;;0.00;99.90;;;;;;4996125;28;20034;-54
2021/12/09 09:21:52;;;;;;;101.32;44.03;;;0.10;99.90;;;;;;4990294;28;20058;-54
2021/12/09 09:24:18;;;;;;;89.13;40.10;;;0.10;99.90;;;;;;4991242;28;20033;-56
2021/12/09 09:26:44;;;;;;;86.07;38.03;;;0.10;99.90;;;;;;4974445;28;20043;-60
2021/12/09 09:31:40;;;;;;;79.88;37.20;;;0.20;99.90;;;;;;4988912;28;20108;-54
2021/12/09 09:34:06;;;;;;;80.47;35.92;;;0.20;99.90;;;;;;4990190;28;20428;-54
2021/12/09 09:36:33;;;;;;;80.77;35.93;;;0.30;99.90;;;;;;4991412;28;20034;-55
2021/12/09 09:39:10;;;;;;;;;;;0.30;99.90;;;;;;4992281;28;20276;-55
2021/12/09 09:41:36;;;;;;;78.68;35.13;;;0.40;99.90;;;;;;4991274;28;19906;-56
2021/12/09 09:44:17;;;;;;;76.53;35.92;;;0.40;99.90;;;;;;4992063;28;20054;-56
2021/12/09 09:46:43;;;;;;;76.03;35.40;;;0.40;99.90;;;;;;4974230;28;20093;-54
2021/12/09 09:49:10;;;;;;;73.35;33.53;;;0.50;99.90;;;;;;4990209;28;20092;-55
2021/12/09 09:51:38;;;;;;;78.57;33.63;;;0.50;99.90;;;;;;4991688;28;20061;-53
2021/12/09 09:54:07;;;;;;;80.50;35.13;;;0.60;99.90;;;;;;4991773;28;20058;-54
2021/12/09 09:56:34;;;;;;;84.15;37.10;;;0.60;99.90;;;;;;4991258;28;20031;-55
2021/12/09 09:59:05;;;;;;;91.53;41.58;;;0.60;99.90;;;;;;4991369;28;20517;-55
2021/12/09 10:01:34;;;;;;;99.57;42.60;;;0.70;99.90;;;;;;4991499;28;20030;-54
2021/12/09 10:04:13;;;;;;;98.88;43.42;;;0.70;99.90;;;;;;4991049;28;20525;-54
2021/12/09 10:06:42;;;;;;;101.13;44.65;;;0.70;99.90;;;;;;4991359;28;20385;-54
2021/12/09 10:09:09;;;;;;;88.10;39.90;;;0.80;99.90;;;;;;4991492;28;20497;-54
2021/12/09 10:11:35;;;;;;;83.72;38.58;;;0.70;99.90;;;;;;4989073;28;20030;-55
2021/12/09 10:14:22;;;;;;;88.72;36.90;;;0.70;99.90;;;;;;4973148;28;20425;-54
2021/12/09 10:17:05;;;;;;;89.57;38.70;;;0.80;99.90;;;;;;4987133;28;20026;-54
2021/12/09 10:19:33;;;;;;;78.75;35.90;;;0.80;99.90;;;;;;4964332;28;20030;-54
2021/12/09 10:22:11;;;;;;;77.18;35.10;;;0.90;99.90;;;;;;4990448;28;20031;-54
2021/12/09 10:24:39;;;;;;;76.57;31.83;;;0.90;99.90;;;;;;4988353;28;20030;-55
2021/12/09 10:27:07;;;;;;;74.80;31.25;;;0.90;99.90;;;;;;4988924;28;20077;-55
2021/12/09 10:29:38;;;;;;;74.22;34.97;;;1.00;99.90;;;;;;4972428;28;20050;-54
2021/12/09 10:32:09;;;;;;;71.85;32.45;;;0.90;99.90;;;;;;4990312;28;20030;-55
2021/12/09 10:34:46;;;;;;;70.68;32.80;;;0.80;99.90;;;;;;4989925;28;20323;-55
2021/12/09 10:37:14;;;;;;;86.28;37.55;;;0.90;99.90;;;;;;4990280;28;20024;-55
2021/12/09 10:39:48;;;;;;;86.15;35.00;;;1.00;99.90;;;;;;4987499;28;20053;-54
2021/12/09 10:42:37;;;;;;;83.22;34.20;;;1.10;99.90;;;;;;4972920;28;20088;-55
2021/12/09 10:45:10;;;;;;;76.30;32.03;;;1.20;99.90;;;;;;4987204;28;20552;-54
2021/12/09 10:50:39;;;;;;;58.22;29.48;;;1.20;99.90;;;;;;4989705;28;20018;-54
2021/12/09 10:53:31;;;;;;;58.92;29.05;;;1.20;99.90;;;;;;4987079;28;20030;-55
2021/12/09 10:55:55;;;;;;;60.67;27.77;;;1.20;99.90;;;;;;4993024;28;20505;-55
2021/12/09 10:58:25;;;;;;;56.42;27.15;;;1.20;99.90;;;;;;4991610;28;20030;-55
2021/12/09 11:00:57;;;;;;;57.53;28.25;;;1.20;99.90;;;;;;4993985;28;20019;-56
2021/12/09 11:03:22;;;;;;;65.22;28.70;;;1.20;99.90;;;;;;4994361;28;20026;-55
2021/12/09 11:05:54;;;;;;;58.20;28.45;;;1.20;99.90;;;;;;4994556;28;20034;-55
2021/12/09 11:08:44;;;;;;;53.08;26.90;;;1.10;99.90;;;;;;4994193;28;20026;-55
2021/12/09 11:11:19;;;;;;;54.45;27.90;;;1.10;99.90;;;;;;4994039;28;20472;-56
2021/12/09 11:13:51;;;;;;;56.45;27.45;;;1.10;99.90;;;;;;4994438;28;20034;-56
2021/12/09 11:16:44;;;;;;;63.15;29.92;;;1.10;99.90;;;;;;4993755;28;20442;-55
2021/12/09 11:19:46;;;;;;;74.60;32.90;;;1.10;99.90;;;;;;4991475;28;20398;-56
2021/12/09 11:22:09;;;;;;;65.20;30.70;;;1.10;99.90;;;;;;4993526;28;20034;-56
2021/12/09 11:24:40;;;;;;;60.75;28.25;;;1.00;99.90;;;;;;4992561;28;20053;-56
2021/12/09 11:27:11;;;;;;;61.53;29.45;;;1.00;99.90;;;;;;4992683;28;20113;-55
2021/12/09 11:29:48;;;;;;;63.75;29.33;;;1.10;99.90;;;;;;4991516;28;22280;-56
2021/12/09 11:35:12;;;;;;;56.83;27.02;;;1.00;99.90;;;;;;4998818;28;20489;-56
2021/12/09 11:43:01;;;;;;;64.93;30.00;;;0.90;99.90;;;;;;4992942;28;20117;-55
2021/12/09 11:45:37;;;;;;;56.83;29.42;;;0.90;99.90;;;;;;4992782;28;20030;-56
2021/12/09 11:48:04;;;;;;;58.40;29.77;;;1.00;99.90;;;;;;4991923;28;20030;-56
2021/12/09 11:50:34;;;;;;;68.88;31.38;;;1.00;99.90;;;;;;4959392;28;20089;-57
2021/12/09 11:53:03;;;;;;;71.80;32.38;;;1.10;99.90;;;;;;4993479;28;20037;-55
2021/12/09 11:55:37;;;;;;;79.32;36.83;;;1.00;99.90;;;;;;4993640;28;20501;-55
2021/12/09 11:58:28;;;;;;;70.72;35.53;;;1.00;99.90;;;;;;4993216;28;20462;-55
2021/12/09 12:15:02;;;;;;;82.50;39.92;;;1.40;99.90;;;;;;4993195;28;20069;-55
2021/12/09 12:20:33;;;;;;;84.55;41.38;;;1.30;99.90;;;;;;4992672;28;20421;-56
2021/12/09 12:28:41;;;;;;;100.97;45.33;;;1.40;99.90;;;;;;4992773;28;20022;-56
2021/12/09 12:31:34;;;;;;;92.97;44.65;;;1.30;99.90;;;;;;4975230;28;20054;-56
2021/12/09 12:39:35;;;;;;;101.15;47.92;;;1.30;99.90;;;;;;5012099;28;20022;-56
2021/12/09 12:42:14;;;;;;;101.05;48.30;;;1.30;99.90;;;;;;4994775;28;20057;-55
2021/12/09 12:51:26;;;;;;;116.47;50.30;;;1.30;99.90;;;;;;4974139;28;20486;-55
2021/12/09 12:53:59;;;;;;;123.13;52.90;;;1.30;99.90;;;;;;4955428;28;20034;-54
2021/12/09 12:56:33;;;;;;;99.30;48.67;;;1.30;99.90;;;;;;4955757;28;20542;-55
2021/12/09 12:59:16;;;;;;;106.60;48.55;;;1.30;99.90;;;;;;4972947;28;20050;-55
2021/12/09 13:02:37;;;;;;;115.00;47.15;;;1.40;99.90;;;;;;4972896;28;20108;-53
2021/12/09 13:13:13;;;;;;;102.88;48.17;;;1.40;99.90;;;;;;4972637;28;20042;-54
2021/12/09 13:16:01;;;;;;;115.25;52.08;;;1.30;99.90;;;;;;4972211;28;20039;-55
2021/12/09 13:18:46;;;;;;;118.65;52.10;;;1.30;99.90;;;;;;4972268;28;20046;-54
2021/12/09 13:21:51;;;;;;;107.40;51.75;;;1.30;99.90;;;;;;4972448;28;20109;-54
2021/12/09 13:24:39;;;;;;;106.50;51.40;;;1.30;99.90;;;;;;4972017;28;20419;-55
2021/12/09 13:27:09;;;;;;;108.40;52.33;;;1.30;99.90;;;;;;4972361;28;20027;-55
2021/12/09 13:29:46;;;;;;;96.85;48.25;;;1.20;99.90;;;;;;4954489;28;20114;-55
2021/12/09 13:32:46;;;;;;;99.47;46.70;;;1.20;99.90;;;;;;4972057;28;20386;-54
2021/12/09 13:35:18;;;;;;;98.38;46.38;;;1.20;99.90;;;;;;5006435;28;20357;-55
2021/12/09 13:49:11;;;;;;;91.00;46.00;;;1.20;99.90;;;;;;4989127;28;20584;-55
2021/12/09 13:54:26;;;;;;;100.47;45.78;;;1.10;99.90;;;;;;4971302;28;20027;-55
2021/12/09 13:57:05;;;;;;;91.85;44.42;;;1.10;99.90;;;;;;4972554;28;20035;-56